sensor_id;sensor_type;location;lat;lon;timestamp;pressure;altitude;pressure_sealevel;temperature;humidity
55347;BME280;41218;55.700;38.270;2023-01-30T00:03:01;99010.19;;;-1.87;71.51
55347;BME280;41218;55.700;38.270;2023-01-30T00:08:02;99012.91;;;-1.87;71.34
55347;BME280;41218;55.700;38.270;2023-01-30T00:13:03;98999.66;;;-1.89;71.72
55347;BME280;41218;55.700;38.270;2023-01-30T00:18:03;98992.03;;;-1.87;71.51
55347;BME280;41218;55.700;38.270;2023-01-30T00:23:04;98983.91;;;-1.87;71.53
55347;BME280;41218;55.700;38.270;2023-01-30T00:28:05;98975.47;;;-1.85;71.54
55347;BME280;41218;55.700;38.270;2023-01-30T00:33:05;98971.91;;;-1.94;71.45
55347;BME280;41218;55.700;38.270;2023-01-30T00:38:06;98977.38;;;-1.86;71.50
55347;BME280;41218;55.700;38.270;2023-01-30T00:43:11;98961.94;;;-1.85;71.46
55347;BME280;41218;55.700;38.270;2023-01-30T00:48:31;98951.38;;;-1.87;71.82
55347;BME280;41218;55.700;38.270;2023-01-30T00:53:31;98955.72;;;-1.86;71.81
55347;BME280;41218;55.700;38.270;2023-01-30T00:58:32;98939.06;;;-1.93;71.79
55347;BME280;41218;55.700;38.270;2023-01-30T01:03:33;98944.97;;;-1.91;72.08
55347;BME280;41218;55.700;38.270;2023-01-30T01:08:33;98919.31;;;-1.93;71.75
55347;BME280;41218;55.700;38.270;2023-01-30T01:13:34;98906.91;;;-1.94;72.04
55347;BME280;41218;55.700;38.270;2023-01-30T01:18:34;98910.25;;;-1.89;71.60
55347;BME280;41218;55.700;38.270;2023-01-30T01:23:36;98912.47;;;-1.91;71.71
55347;BME280;41218;55.700;38.270;2023-01-30T01:28:36;98904.06;;;-1.89;71.99
55347;BME280;41218;55.700;38.270;2023-01-30T01:33:37;98888.44;;;-1.92;71.80
55347;BME280;41218;55.700;38.270;2023-01-30T01:38:40;98876.28;;;-1.95;71.97
55347;BME280;41218;55.700;38.270;2023-01-30T01:44:07;98877.09;;;-1.94;71.93
55347;BME280;41218;55.700;38.270;2023-01-30T01:54:26;98871.31;;;-2.02;71.88
55347;BME280;41218;55.700;38.270;2023-01-30T01:59:35;98865.59;;;-2.00;72.11
55347;BME280;41218;55.700;38.270;2023-01-30T02:04:39;98854.09;;;-2.06;71.72
55347;BME280;41218;55.700;38.270;2023-01-30T02:10:00;98841.97;;;-2.08;71.86
55347;BME280;41218;55.700;38.270;2023-01-30T02:15:03;98842.16;;;-2.05;72.05
55347;BME280;41218;55.700;38.270;2023-01-30T02:56:18;98794.66;;;-2.11;72.42
55347;BME280;41218;55.700;38.270;2023-01-30T03:02:19;98793.22;;;-2.08;72.71
55347;BME280;41218;55.700;38.270;2023-01-30T03:07:24;98781.91;;;-2.10;72.57
55347;BME280;41218;55.700;38.270;2023-01-30T03:12:35;98771.06;;;-2.10;72.32
55347;BME280;41218;55.700;38.270;2023-01-30T03:17:44;98767.69;;;-2.16;72.63
55347;BME280;41218;55.700;38.270;2023-01-30T03:22:45;98761.66;;;-2.13;72.37
55347;BME280;41218;55.700;38.270;2023-01-30T03:27:46;98756.25;;;-2.13;72.21
55347;BME280;41218;55.700;38.270;2023-01-30T03:32:48;98746.06;;;-2.07;72.39
55347;BME280;41218;55.700;38.270;2023-01-30T03:37:48;98732.88;;;-2.09;72.53
55347;BME280;41218;55.700;38.270;2023-01-30T03:42:49;98730.94;;;-2.08;72.41
55347;BME280;41218;55.700;38.270;2023-01-30T03:47:49;98718.16;;;-2.16;72.54
55347;BME280;41218;55.700;38.270;2023-01-30T03:52:50;98717.41;;;-2.08;72.69
55347;BME280;41218;55.700;38.270;2023-01-30T03:57:57;98707.34;;;-2.16;72.60
55347;BME280;41218;55.700;38.270;2023-01-30T04:02:57;98708.63;;;-2.14;72.61
55347;BME280;41218;55.700;38.270;2023-01-30T04:07:58;98704.00;;;-2.13;72.70
55347;BME280;41218;55.700;38.270;2023-01-30T04:12:59;98693.50;;;-2.15;72.85
55347;BME280;41218;55.700;38.270;2023-01-30T04:17:59;98675.81;;;-2.12;72.63
55347;BME280;41218;55.700;38.270;2023-01-30T04:23:00;98674.41;;;-2.10;72.36
55347;BME280;41218;55.700;38.270;2023-01-30T04:28:00;98662.41;;;-2.17;72.53
55347;BME280;41218;55.700;38.270;2023-01-30T04:33:01;98669.28;;;-2.11;72.47
55347;BME280;41218;55.700;38.270;2023-01-30T04:38:01;98658.47;;;-2.11;72.62
55347;BME280;41218;55.700;38.270;2023-01-30T04:43:02;98652.88;;;-2.15;72.49
55347;BME280;41218;55.700;38.270;2023-01-30T04:48:02;98653.84;;;-2.11;72.54
55347;BME280;41218;55.700;38.270;2023-01-30T04:53:03;98643.34;;;-2.12;72.22
55347;BME280;41218;55.700;38.270;2023-01-30T04:58:03;98633.94;;;-2.15;72.37
55347;BME280;41218;55.700;38.270;2023-01-30T05:03:04;98635.41;;;-2.09;72.43
55347;BME280;41218;55.700;38.270;2023-01-30T05:08:05;98630.09;;;-2.14;72.59
55347;BME280;41218;55.700;38.270;2023-01-30T05:13:06;98615.00;;;-2.15;72.67
55347;BME280;41218;55.700;38.270;2023-01-30T05:18:07;98620.72;;;-2.16;72.21
55347;BME280;41218;55.700;38.270;2023-01-30T05:23:07;98599.66;;;-2.19;72.71
55347;BME280;41218;55.700;38.270;2023-01-30T05:28:08;98596.03;;;-2.15;72.60
55347;BME280;41218;55.700;38.270;2023-01-30T05:33:08;98581.19;;;-2.26;72.34
55347;BME280;41218;55.700;38.270;2023-01-30T05:38:09;98579.44;;;-2.22;72.76
55347;BME280;41218;55.700;38.270;2023-01-30T05:43:09;98560.31;;;-2.26;72.70
55347;BME280;41218;55.700;38.270;2023-01-30T05:48:10;98563.19;;;-2.22;72.79
55347;BME280;41218;55.700;38.270;2023-01-30T05:53:10;98556.84;;;-2.17;72.61
55347;BME280;41218;55.700;38.270;2023-01-30T05:58:11;98555.91;;;-2.13;72.45
55347;BME280;41218;55.700;38.270;2023-01-30T06:03:11;98533.13;;;-2.12;72.25
55347;BME280;41218;55.700;38.270;2023-01-30T06:08:12;98526.63;;;-2.11;72.65
55347;BME280;41218;55.700;38.270;2023-01-30T06:13:12;98530.28;;;-2.07;72.57
55347;BME280;41218;55.700;38.270;2023-01-30T06:18:13;98521.34;;;-2.07;72.76
55347;BME280;41218;55.700;38.270;2023-01-30T06:23:14;98523.41;;;-2.13;72.41
55347;BME280;41218;55.700;38.270;2023-01-30T06:28:16;98532.50;;;-2.09;72.40
55347;BME280;41218;55.700;38.270;2023-01-30T06:33:17;98510.69;;;-2.12;72.47
55347;BME280;41218;55.700;38.270;2023-01-30T06:38:18;98522.63;;;-2.05;72.40
55347;BME280;41218;55.700;38.270;2023-01-30T06:43:19;98532.81;;;-2.02;72.41
55347;BME280;41218;55.700;38.270;2023-01-30T06:48:20;98526.78;;;-1.98;72.06
55347;BME280;41218;55.700;38.270;2023-01-30T06:53:20;98505.75;;;-2.10;72.11
55347;BME280;41218;55.700;38.270;2023-01-30T06:58:24;98500.63;;;-2.03;72.30
55347;BME280;41218;55.700;38.270;2023-01-30T07:03:25;98503.03;;;-2.02;72.43
55347;BME280;41218;55.700;38.270;2023-01-30T07:08:25;98507.19;;;-1.95;72.03
55347;BME280;41218;55.700;38.270;2023-01-30T07:13:26;98510.69;;;-1.95;72.26
55347;BME280;41218;55.700;38.270;2023-01-30T07:18:26;98510.06;;;-1.92;72.23
55347;BME280;41218;55.700;38.270;2023-01-30T07:23:27;98498.28;;;-1.96;72.04
55347;BME280;41218;55.700;38.270;2023-01-30T07:28:27;98492.38;;;-1.89;72.25
55347;BME280;41218;55.700;38.270;2023-01-30T07:33:28;98480.59;;;-1.93;72.30
55347;BME280;41218;55.700;38.270;2023-01-30T07:38:28;98486.81;;;-1.84;72.16
55347;BME280;41218;55.700;38.270;2023-01-30T07:43:29;98484.25;;;-1.81;71.65
55347;BME280;41218;55.700;38.270;2023-01-30T07:48:29;98486.16;;;-1.81;71.80
55347;BME280;41218;55.700;38.270;2023-01-30T07:53:30;98477.22;;;-1.73;71.88
55347;BME280;41218;55.700;38.270;2023-01-30T07:58:30;98451.44;;;-1.88;71.65
55347;BME280;41218;55.700;38.270;2023-01-30T08:03:31;98442.66;;;-1.85;71.67
55347;BME280;41218;55.700;38.270;2023-01-30T08:08:31;98458.44;;;-1.78;71.93
55347;BME280;41218;55.700;38.270;2023-01-30T08:13:33;98440.44;;;-1.83;71.99
55347;BME280;41218;55.700;38.270;2023-01-30T08:18:34;98441.38;;;-1.78;71.68
55347;BME280;41218;55.700;38.270;2023-01-30T08:23:35;98429.13;;;-1.76;71.61
55347;BME280;41218;55.700;38.270;2023-01-30T08:28:35;98422.75;;;-1.71;71.99
55347;BME280;41218;55.700;38.270;2023-01-30T08:33:36;98415.88;;;-1.69;71.46
55347;BME280;41218;55.700;38.270;2023-01-30T08:38:36;98411.41;;;-1.65;71.69
55347;BME280;41218;55.700;38.270;2023-01-30T08:43:37;98415.88;;;-1.60;71.65
55347;BME280;41218;55.700;38.270;2023-01-30T08:48:37;98416.00;;;-1.56;71.59
55347;BME280;41218;55.700;38.270;2023-01-30T08:53:39;98399.75;;;-1.56;71.67
55347;BME280;41218;55.700;38.270;2023-01-30T08:58:40;98394.66;;;-1.49;71.71
55347;BME280;41218;55.700;38.270;2023-01-30T09:03:42;98390.00;;;-1.49;71.54
55347;BME280;41218;55.700;38.270;2023-01-30T09:08:43;98376.63;;;-1.45;71.44
55347;BME280;41218;55.700;38.270;2023-01-30T09:13:44;98373.56;;;-1.35;71.56
55347;BME280;41218;55.700;38.270;2023-01-30T09:18:44;98375.44;;;-1.27;71.44
55347;BME280;41218;55.700;38.270;2023-01-30T09:23:45;98372.41;;;-1.25;71.32
55347;BME280;41218;55.700;38.270;2023-01-30T09:28:45;98358.53;;;-1.24;71.60
55347;BME280;41218;55.700;38.270;2023-01-30T09:33:46;98352.63;;;-1.26;71.49
55347;BME280;41218;55.700;38.270;2023-01-30T09:38:47;98328.56;;;-1.27;71.62
55347;BME280;41218;55.700;38.270;2023-01-30T09:54:37;98315.38;;;-1.08;71.41
55347;BME280;41218;55.700;38.270;2023-01-30T10:04:54;98296.34;;;-0.99;71.21
55347;BME280;41218;55.700;38.270;2023-01-30T10:15:44;98281.94;;;-0.91;70.93
55347;BME280;41218;55.700;38.270;2023-01-30T10:26:02;98254.81;;;-0.91;70.98
55347;BME280;41218;55.700;38.270;2023-01-30T10:31:14;98250.50;;;-0.92;71.40
55347;BME280;41218;55.700;38.270;2023-01-30T10:36:22;98244.41;;;-0.89;71.16
55347;BME280;41218;55.700;38.270;2023-01-30T10:41:34;98233.34;;;-0.84;71.27
55347;BME280;41218;55.700;38.270;2023-01-30T10:57:24;98207.28;;;-0.76;70.95
55347;BME280;41218;55.700;38.270;2023-01-30T11:02:43;98191.34;;;-0.77;71.01
55347;BME280;41218;55.700;38.270;2023-01-30T11:07:49;98187.66;;;-0.73;70.94
55347;BME280;41218;55.700;38.270;2023-01-30T11:12:55;98181.06;;;-0.72;70.87
55347;BME280;41218;55.700;38.270;2023-01-30T11:18:04;98181.53;;;-0.70;71.03
55347;BME280;41218;55.700;38.270;2023-01-30T11:23:32;98175.47;;;-0.67;70.91
55347;BME280;41218;55.700;38.270;2023-01-30T11:28:38;98176.69;;;-0.64;71.09
55347;BME280;41218;55.700;38.270;2023-01-30T11:33:40;98164.59;;;-0.67;70.97
55347;BME280;41218;55.700;38.270;2023-01-30T11:38:54;98156.69;;;-0.59;71.31
55347;BME280;41218;55.700;38.270;2023-01-30T11:44:00;98160.00;;;-0.54;70.84
55347;BME280;41218;55.700;38.270;2023-01-30T11:49:11;98163.50;;;-0.53;71.10
55347;BME280;41218;55.700;38.270;2023-01-30T11:54:17;98155.03;;;-0.52;71.19
55347;BME280;41218;55.700;38.270;2023-01-30T11:59:43;98151.53;;;-0.52;71.39
55347;BME280;41218;55.700;38.270;2023-01-30T12:04:46;98138.28;;;-0.54;71.17
55347;BME280;41218;55.700;38.270;2023-01-30T12:09:50;98137.13;;;-0.53;71.33
55347;BME280;41218;55.700;38.270;2023-01-30T12:15:44;98135.56;;;-0.54;71.60
55347;BME280;41218;55.700;38.270;2023-01-30T12:20:31;98125.81;;;-0.55;71.44
55347;BME280;41218;55.700;38.270;2023-01-30T12:25:47;98123.13;;;-0.55;71.53
55347;BME280;41218;55.700;38.270;2023-01-30T12:30:55;98118.03;;;-0.56;71.44
55347;BME280;41218;55.700;38.270;2023-01-30T12:52:38;98095.97;;;-0.55;71.75
55347;BME280;41218;55.700;38.270;2023-01-30T13:19:22;98073.03;;;-0.57;71.54
55347;BME280;41218;55.700;38.270;2023-01-30T13:24:42;98066.34;;;-0.60;72.31
55347;BME280;41218;55.700;38.270;2023-01-30T13:29:47;98054.25;;;-0.63;72.04
55347;BME280;41218;55.700;38.270;2023-01-30T13:34:49;98023.81;;;-0.81;71.92
55347;BME280;41218;55.700;38.270;2023-01-30T13:39:52;98062.50;;;-0.59;72.00
55347;BME280;41218;55.700;38.270;2023-01-30T13:44:55;98059.47;;;-0.57;71.96
55347;BME280;41218;55.700;38.270;2023-01-30T13:50:18;98052.09;;;-0.57;72.01
55347;BME280;41218;55.700;38.270;2023-01-30T13:55:40;98048.47;;;-0.61;71.86
55347;BME280;41218;55.700;38.270;2023-01-30T14:00:52;98041.03;;;-0.64;71.83
55347;BME280;41218;55.700;38.270;2023-01-30T14:10:56;98030.75;;;-0.58;72.04
55347;BME280;41218;55.700;38.270;2023-01-30T14:16:00;98006.09;;;-0.66;72.10
55347;BME280;41218;55.700;38.270;2023-01-30T14:26:11;98018.09;;;-0.54;71.90
55347;BME280;41218;55.700;38.270;2023-01-30T14:31:44;98020.88;;;-0.51;71.91
55347;BME280;41218;55.700;38.270;2023-01-30T14:36:46;98008.13;;;-0.50;71.52
55347;BME280;41218;55.700;38.270;2023-01-30T14:42:10;98014.81;;;-0.48;71.94
55347;BME280;41218;55.700;38.270;2023-01-30T14:47:17;98010.03;;;-0.51;71.67
55347;BME280;41218;55.700;38.270;2023-01-30T14:52:45;98009.03;;;-0.46;71.80
55347;BME280;41218;55.700;38.270;2023-01-30T14:57:56;98010.94;;;-0.47;71.74
55347;BME280;41218;55.700;38.270;2023-01-30T15:02:58;98003.81;;;-0.39;71.72
55347;BME280;41218;55.700;38.270;2023-01-30T15:08:11;97984.03;;;-0.52;71.31
55347;BME280;41218;55.700;38.270;2023-01-30T15:18:47;98006.53;;;-0.39;71.24
55347;BME280;41218;55.700;38.270;2023-01-30T15:35:19;97989.69;;;-0.32;71.25
55347;BME280;41218;55.700;38.270;2023-01-30T15:40:23;97988.22;;;-0.30;71.29
55347;BME280;41218;55.700;38.270;2023-01-30T15:50:28;97987.06;;;-0.29;71.05
55347;BME280;41218;55.700;38.270;2023-01-30T15:55:32;97977.25;;;-0.33;70.74
55347;BME280;41218;55.700;38.270;2023-01-30T16:00:59;97981.63;;;-0.29;70.77
55347;BME280;41218;55.700;38.270;2023-01-30T16:05:59;97938.69;;;-0.51;70.76
55347;BME280;41218;55.700;38.270;2023-01-30T16:11:00;97969.78;;;-0.24;70.35
55347;BME280;41218;55.700;38.270;2023-01-30T16:16:15;97969.41;;;-0.23;70.13
55347;BME280;41218;55.700;38.270;2023-01-30T16:21:21;97959.91;;;-0.29;70.38
55347;BME280;41218;55.700;38.270;2023-01-30T16:26:23;97959.25;;;-0.26;70.43
55347;BME280;41218;55.700;38.270;2023-01-30T16:31:23;97959.47;;;-0.31;70.08
55347;BME280;41218;55.700;38.270;2023-01-30T16:41:37;97958.22;;;-0.21;69.99
55347;BME280;41218;55.700;38.270;2023-01-30T16:46:51;97957.09;;;-0.20;69.89
55347;BME280;41218;55.700;38.270;2023-01-30T16:52:02;97956.19;;;-0.24;70.02
55347;BME280;41218;55.700;38.270;2023-01-30T16:57:04;97966.03;;;-0.19;69.69
55347;BME280;41218;55.700;38.270;2023-01-30T17:02:05;97966.38;;;-0.21;69.58
55347;BME280;41218;55.700;38.270;2023-01-30T17:07:06;97951.88;;;-0.25;69.55
55347;BME280;41218;55.700;38.270;2023-01-30T17:12:34;97948.38;;;-0.26;69.07
55347;BME280;41218;55.700;38.270;2023-01-30T17:17:37;97952.69;;;-0.25;69.64
55347;BME280;41218;55.700;38.270;2023-01-30T17:22:38;97945.19;;;-0.15;69.63
55347;BME280;41218;55.700;38.270;2023-01-30T17:27:39;97953.69;;;-0.17;69.50
55347;BME280;41218;55.700;38.270;2023-01-30T17:32:39;97939.78;;;-0.28;69.59
55347;BME280;41218;55.700;38.270;2023-01-30T17:37:40;97954.72;;;-0.22;69.21
55347;BME280;41218;55.700;38.270;2023-01-30T17:42:42;97932.00;;;-0.29;69.11
55347;BME280;41218;55.700;38.270;2023-01-30T17:47:43;97941.28;;;-0.30;69.20
55347;BME280;41218;55.700;38.270;2023-01-30T17:52:43;97945.69;;;-0.26;68.99
55347;BME280;41218;55.700;38.270;2023-01-30T17:57:46;97916.38;;;-0.45;68.85
55347;BME280;41218;55.700;38.270;2023-01-30T18:02:47;97940.84;;;-0.32;69.03
55347;BME280;41218;55.700;38.270;2023-01-30T18:07:48;97936.06;;;-0.35;68.60
55347;BME280;41218;55.700;38.270;2023-01-30T18:12:48;97925.91;;;-0.38;68.60
55347;BME280;41218;55.700;38.270;2023-01-30T18:17:49;97931.56;;;-0.44;68.74
55347;BME280;41218;55.700;38.270;2023-01-30T18:22:50;97947.25;;;-0.37;69.00
55347;BME280;41218;55.700;38.270;2023-01-30T18:27:51;97968.97;;;-0.25;68.81
55347;BME280;41218;55.700;38.270;2023-01-30T18:32:51;97951.91;;;-0.37;68.72
55347;BME280;41218;55.700;38.270;2023-01-30T18:37:52;97939.13;;;-0.37;68.85
55347;BME280;41218;55.700;38.270;2023-01-30T18:42:53;97953.81;;;-0.26;68.78
55347;BME280;41218;55.700;38.270;2023-01-30T18:47:53;97951.78;;;-0.29;69.04
55347;BME280;41218;55.700;38.270;2023-01-30T18:52:54;97946.16;;;-0.36;68.48
55347;BME280;41218;55.700;38.270;2023-01-30T18:57:57;97947.25;;;-0.37;68.42
55347;BME280;41218;55.700;38.270;2023-01-30T19:02:58;97957.47;;;-0.34;68.63
55347;BME280;41218;55.700;38.270;2023-01-30T19:07:58;97948.28;;;-0.42;68.69
55347;BME280;41218;55.700;38.270;2023-01-30T19:12:59;97968.06;;;-0.29;68.36
55347;BME280;41218;55.700;38.270;2023-01-30T19:18:18;97966.84;;;-0.31;68.44
55347;BME280;41218;55.700;38.270;2023-01-30T19:23:19;97949.06;;;-0.41;68.38
55347;BME280;41218;55.700;38.270;2023-01-30T19:28:19;97937.91;;;-0.52;68.28
55347;BME280;41218;55.700;38.270;2023-01-30T19:33:20;97937.66;;;-0.47;68.12
55347;BME280;41218;55.700;38.270;2023-01-30T19:38:21;97962.44;;;-0.36;68.07
55347;BME280;41218;55.700;38.270;2023-01-30T19:43:21;97957.00;;;-0.36;68.05
55347;BME280;41218;55.700;38.270;2023-01-30T19:48:22;97940.59;;;-0.39;68.22
55347;BME280;41218;55.700;38.270;2023-01-30T19:53:22;97949.06;;;-0.41;67.89
55347;BME280;41218;55.700;38.270;2023-01-30T19:58:23;97965.94;;;-0.35;67.91
55347;BME280;41218;55.700;38.270;2023-01-30T20:03:24;97944.47;;;-0.41;68.36
55347;BME280;41218;55.700;38.270;2023-01-30T20:08:24;97955.78;;;-0.38;68.34
55347;BME280;41218;55.700;38.270;2023-01-30T20:13:25;97961.19;;;-0.38;68.24
55347;BME280;41218;55.700;38.270;2023-01-30T20:18:25;97953.41;;;-0.40;68.09
55347;BME280;41218;55.700;38.270;2023-01-30T20:23:26;97956.00;;;-0.44;68.45
55347;BME280;41218;55.700;38.270;2023-01-30T20:28:26;97958.25;;;-0.46;68.40
55347;BME280;41218;55.700;38.270;2023-01-30T20:33:29;97964.78;;;-0.47;68.26
55347;BME280;41218;55.700;38.270;2023-01-30T20:38:35;97953.63;;;-0.57;68.93
55347;BME280;41218;55.700;38.270;2023-01-30T20:43:42;97971.50;;;-0.56;68.69
55347;BME280;41218;55.700;38.270;2023-01-30T20:48:46;97960.84;;;-0.62;68.58
55347;BME280;41218;55.700;38.270;2023-01-30T20:53:52;97960.41;;;-0.64;68.96
55347;BME280;41218;55.700;38.270;2023-01-30T20:58:52;97956.91;;;-0.64;69.44
55347;BME280;41218;55.700;38.270;2023-01-30T21:03:54;97963.13;;;-0.64;69.15
55347;BME280;41218;55.700;38.270;2023-01-30T21:08:55;97956.00;;;-0.68;69.58
55347;BME280;41218;55.700;38.270;2023-01-30T21:13:55;97948.53;;;-0.71;69.30
55347;BME280;41218;55.700;38.270;2023-01-30T21:19:01;97946.50;;;-0.74;69.49
55347;BME280;41218;55.700;38.270;2023-01-30T21:24:13;97961.56;;;-0.77;69.63
55347;BME280;41218;55.700;38.270;2023-01-30T21:29:16;97967.63;;;-0.80;69.45
55347;BME280;41218;55.700;38.270;2023-01-30T21:34:17;97957.94;;;-0.81;69.79
55347;BME280;41218;55.700;38.270;2023-01-30T21:39:17;97953.50;;;-0.86;69.61
55347;BME280;41218;55.700;38.270;2023-01-30T21:44:36;97962.78;;;-0.87;69.99
55347;BME280;41218;55.700;38.270;2023-01-30T21:49:37;97953.28;;;-0.93;69.96
55347;BME280;41218;55.700;38.270;2023-01-30T21:54:39;97959.50;;;-0.92;70.22
55347;BME280;41218;55.700;38.270;2023-01-30T21:59:40;97949.31;;;-0.95;70.22
55347;BME280;41218;55.700;38.270;2023-01-30T22:04:40;97958.72;;;-0.93;70.29
55347;BME280;41218;55.700;38.270;2023-01-30T22:09:41;97961.50;;;-1.02;70.08
55347;BME280;41218;55.700;38.270;2023-01-30T22:14:42;97966.25;;;-0.98;70.32
55347;BME280;41218;55.700;38.270;2023-01-30T22:19:42;97965.34;;;-1.03;70.26
55347;BME280;41218;55.700;38.270;2023-01-30T22:24:43;97957.56;;;-1.04;70.79
55347;BME280;41218;55.700;38.270;2023-01-30T22:29:43;97972.34;;;-1.02;70.31
55347;BME280;41218;55.700;38.270;2023-01-30T22:34:44;97970.44;;;-1.01;70.56
55347;BME280;41218;55.700;38.270;2023-01-30T22:39:44;97975.97;;;-0.97;70.23
55347;BME280;41218;55.700;38.270;2023-01-30T22:44:45;97973.63;;;-0.99;70.15
55347;BME280;41218;55.700;38.270;2023-01-30T22:49:45;97978.13;;;-1.03;70.51
55347;BME280;41218;55.700;38.270;2023-01-30T22:54:46;97969.88;;;-1.07;70.44
55347;BME280;41218;55.700;38.270;2023-01-30T22:59:46;97971.78;;;-1.07;70.34
55347;BME280;41218;55.700;38.270;2023-01-30T23:04:47;97979.56;;;-1.06;70.45
55347;BME280;41218;55.700;38.270;2023-01-30T23:09:49;97957.06;;;-1.18;70.63
55347;BME280;41218;55.700;38.270;2023-01-30T23:14:50;97971.88;;;-1.16;70.54
55347;BME280;41218;55.700;38.270;2023-01-30T23:19:51;97973.59;;;-1.11;70.67
55347;BME280;41218;55.700;38.270;2023-01-30T23:24:51;97968.50;;;-1.13;70.84
55347;BME280;41218;55.700;38.270;2023-01-30T23:29:52;97963.09;;;-1.13;70.99
55347;BME280;41218;55.700;38.270;2023-01-30T23:34:52;97972.31;;;-1.14;71.03
55347;BME280;41218;55.700;38.270;2023-01-30T23:39:53;97957.06;;;-1.18;70.98
55347;BME280;41218;55.700;38.270;2023-01-30T23:44:53;97951.97;;;-1.20;70.92
55347;BME280;41218;55.700;38.270;2023-01-30T23:49:54;97962.94;;;-1.16;71.07
55347;BME280;41218;55.700;38.270;2023-01-30T23:54:54;97950.28;;;-1.25;71.22
55347;BME280;41218;55.700;38.270;2023-01-30T23:59:55;97956.50;;;-1.24;71.28
